Time;durP1;ratioP1;P1;durP2;ratioP2;P2;SDS_P1;SDS_P2;PMS_P1;PMS_P2;Temp;Humidity;BMP_temperature;BMP_pressure;BME280_temperature;BME280_humidity;BME280_pressure;Samples;Min_cycle;Max_cycle;Signal;HPM_P1;HPM_P2
2021/01/03 00:00:23;;;;;;;65.67;38.23;;;;;;;0.98;95.37;99747.59;1860041;76;25300;-68
2021/01/03 00:02:51;;;;;;;62.10;35.13;;;;;;;0.98;95.36;99742.41;1844715;77;25690;-68
2021/01/03 00:05:23;;;;;;;65.27;36.20;;;;;;;0.97;95.44;99739.88;1826506;77;25283;-67
2021/01/03 00:07:49;;;;;;;61.47;35.23;;;;;;;0.95;95.52;99742.52;1826003;78;25105;-67
2021/01/03 00:10:16;;;;;;;60.00;35.00;;;;;;;0.91;95.50;99740.48;1826224;78;25699;-67
2021/01/03 00:12:44;;;;;;;64.07;36.40;;;;;;;0.91;95.64;99744.83;1794193;78;25224;-67
2021/01/03 00:15:14;;;;;;;64.10;37.03;;;;;;;0.93;95.64;99737.84;1826368;78;25240;-67
2021/01/03 00:17:41;;;;;;;68.23;37.50;;;;;;;0.95;95.68;99739.09;1826387;78;25121;-68
2021/01/03 00:20:11;;;;;;;66.60;38.00;;;;;;;0.95;95.60;99745.11;1826600;78;25255;-67
2021/01/03 00:22:38;;;;;;;66.40;39.33;;;;;;;0.98;95.66;99741.58;1826321;78;25310;-67
2021/01/03 00:25:07;;;;;;;64.47;38.23;;;;;;;1.02;95.71;99741.41;1826545;78;25200;-68
2021/01/03 00:27:34;;;;;;;60.53;35.07;;;;;;;1.07;95.68;99740.80;1826467;78;25725;-67
2021/01/03 00:30:00;;;;;;;67.57;35.93;;;;;;;1.11;95.59;99744.11;1826289;78;25247;-67
2021/01/03 00:32:27;;;;;;;60.67;33.87;;;;;;;1.10;95.59;99748.42;1826394;78;25630;-67
2021/01/03 00:34:54;;;;;;;60.83;34.60;;;;;;;1.11;95.58;99752.72;1826526;78;25200;-67
2021/01/03 00:37:23;;;;;;;67.27;37.40;;;;;;;1.14;95.62;99750.91;1826242;77;25702;-67
2021/01/03 00:39:50;;;;;;;64.77;38.80;;;;;;;1.16;95.60;99738.31;1826585;78;25148;-68
2021/01/03 00:42:17;;;;;;;59.50;33.97;;;;;;;1.19;95.61;99725.25;1826589;78;25280;-67
2021/01/03 00:44:44;;;;;;;67.27;37.47;;;;;;;1.19;95.60;99730.85;1826497;77;25228;-67
2021/01/03 00:47:10;;;;;;;60.80;35.43;;;;;;;1.13;95.45;99737.58;1793444;78;25294;-66
2021/01/03 00:49:37;;;;;;;67.90;38.37;;;;;;;1.15;95.54;99742.25;1826284;78;25215;-67
2021/01/03 00:52:04;;;;;;;65.93;37.67;;;;;;;1.17;95.58;99739.98;1822342;78;25167;-67
2021/01/03 00:54:31;;;;;;;62.17;34.77;;;;;;;1.23;95.66;99735.88;1822531;78;25270;-67
2021/01/03 00:56:57;;;;;;;58.07;32.67;;;;;;;1.25;95.64;99728.88;1822376;78;25198;-68
2021/01/03 00:59:24;;;;;;;54.83;31.80;;;;;;;1.29;95.60;99739.97;1822464;78;25843;-67
2021/01/03 01:01:50;;;;;;;62.53;34.53;;;;;;;1.28;95.54;99736.54;1822265;78;25286;-67
2021/01/03 01:04:17;;;;;;;49.90;28.10;;;;;;;1.26;95.48;99740.95;1821924;78;25757;-67
2021/01/03 01:06:44;;;;;;;61.00;35.67;;;;;;;1.26;95.73;99747.88;1821829;78;25313;-67
2021/01/03 01:09:10;;;;;;;54.33;31.47;;;;;;;1.21;95.60;99741.56;1821842;78;25670;-67
2021/01/03 01:11:41;;;;;;;56.33;34.40;;;;;;;1.24;95.68;99736.70;1821757;78;25195;-67
2021/01/03 01:14:09;;;;;;;63.80;35.70;;;;;;;1.21;95.70;99736.39;1821676;78;25610;-68
2021/01/03 01:16:36;;;;;;;55.13;32.50;;;;;;;1.21;95.72;99727.31;1821718;78;25191;-67
2021/01/03 01:19:04;;;;;;;60.57;36.23;;;;;;;1.22;95.70;99723.80;1821814;78;25187;-67
2021/01/03 01:21:31;;;;;;;53.90;31.57;;;;;;;1.23;95.82;99725.97;1821769;78;25179;-67
2021/01/03 01:23:57;;;;;;;62.47;36.07;;;;;;;1.27;95.87;99720.63;1821974;78;25721;-67
2021/01/03 01:26:24;;;;;;;62.03;35.87;;;;;;;1.25;95.77;99720.27;1821854;78;25603;-68
2021/01/03 01:28:51;;;;;;;55.07;32.10;;;;;;;1.26;95.70;99714.20;1821851;78;25721;-67
2021/01/03 01:31:17;;;;;;;54.50;32.47;;;;;;;1.25;95.83;99712.50;1821812;78;25864;-68
2021/01/03 01:33:44;;;;;;;60.30;36.10;;;;;;;1.24;95.81;99713.39;1821815;78;25064;-67
2021/01/03 01:36:11;;;;;;;55.60;32.00;;;;;;;1.24;95.76;99708.20;1821795;78;25215;-67
2021/01/03 01:38:38;;;;;;;45.43;28.07;;;;;;;1.22;95.78;99703.08;1821770;78;25306;-68
2021/01/03 01:41:05;;;;;;;57.17;34.87;;;;;;;1.19;96.00;99707.11;1821745;78;25701;-67
2021/01/03 01:43:31;;;;;;;58.60;33.00;;;;;;;1.19;95.79;99708.83;1821806;78;25203;-67
2021/01/03 01:45:58;;;;;;;46.03;26.90;;;;;;;1.18;95.93;99704.11;1821800;78;25732;-67
2021/01/03 01:48:30;;;;;;;55.17;33.90;;;;;;;1.15;96.30;99691.27;1821846;78;25207;-67
2021/01/03 01:51:07;;;;;;;55.77;31.00;;;;;;;1.16;96.11;99685.20;1821724;78;25364;-68
2021/01/03 01:54:00;;;;;;;50.23;29.97;;;;;;;1.19;96.19;99695.45;1821874;78;25291;-67
2021/01/03 01:56:55;;;;;;;61.53;35.93;;;;;;;1.19;96.26;99697.17;1821826;78;25170;-67
2021/01/03 01:59:43;;;;;;;47.90;29.23;;;;;;;1.20;96.29;99683.33;1821854;78;25261;-68
2021/01/03 02:02:18;;;;;;;51.50;33.13;;;;;;;1.20;96.37;99679.44;1821731;78;25306;-67
2021/01/03 02:04:58;;;;;;;57.47;32.33;;;;;;;1.18;96.19;99685.97;1821779;78;25255;-67
2021/01/03 02:07:41;;;;;;;54.63;32.37;;;;;;;1.18;96.20;99685.14;1821917;78;25254;-67
2021/01/03 02:10:35;;;;;;;61.60;35.77;;;;;;;1.18;96.18;99686.44;1821758;78;25321;-68
2021/01/03 02:13:21;;;;;;;52.07;31.77;;;;;;;1.20;96.29;99690.64;1819712;78;25598;-68
2021/01/03 02:15:50;;;;;;;51.63;30.90;;;;;;;1.23;96.23;99684.05;1821713;78;25338;-68
2021/01/03 02:18:17;;;;;;;54.23;32.23;;;;;;;1.20;96.56;99698.88;1790176;78;25686;-68
2021/01/03 02:20:52;;;;;;;48.33;31.43;;;;;;;1.21;96.51;99695.39;1821680;78;25056;-68
2021/01/03 02:23:45;;;;;;;57.83;35.93;;;;;;;1.25;96.37;99684.83;1849914;76;26498;-67
2021/01/03 02:26:12;;;;;;;48.73;30.67;;;;;;;1.26;96.34;99685.23;1819823;77;25259;-66
2021/01/03 02:28:42;;;;;;;49.20;30.87;;;;;;;1.31;96.24;99670.81;1819894;78;25633;-66
2021/01/03 02:31:09;;;;;;;55.43;33.70;;;;;;;1.30;96.18;99663.93;1819714;77;25667;-66
2021/01/03 02:33:45;;;;;;;55.30;32.53;;;;;;;1.30;96.19;99649.67;1819848;78;25591;-66
2021/01/03 02:36:24;;;;;;;49.73;33.60;;;;;;;1.33;96.24;99651.32;1819951;78;25258;-67
2021/01/03 02:39:14;;;;;;;50.47;32.57;;;;;;;1.32;96.25;99643.98;1819885;78;25322;-67
2021/01/03 02:41:41;;;;;;;48.57;29.10;;;;;;;1.27;96.31;99636.84;1819710;77;25274;-67
2021/01/03 02:44:08;;;;;;;46.13;28.43;;;;;;;1.27;96.32;99627.77;1819887;77;25211;-66
2021/01/03 02:46:35;;;;;;;47.37;31.77;;;;;;;1.26;96.31;99625.64;1819780;77;25595;-67
2021/01/03 02:49:01;;;;;;;50.73;33.10;;;;;;;1.23;96.31;99633.53;1819869;78;25341;-66
2021/01/03 02:51:38;;;;;;;49.00;31.83;;;;;;;1.23;96.31;99641.30;1795818;77;25703;-66
2021/01/03 02:54:07;;;;;;;53.27;33.43;;;;;;;1.26;96.36;99635.17;1787710;79;25193;-67
2021/01/03 02:56:33;;;;;;;51.13;33.23;;;;;;;1.30;96.33;99632.83;1787595;80;25134;-67
2021/01/03 02:59:00;;;;;;;49.90;32.60;;;;;;;1.35;96.43;99636.55;1787663;80;25277;-67
2021/01/03 03:01:27;;;;;;;53.90;34.87;;;;;;;1.40;96.38;99643.22;1787481;80;25604;-67
2021/01/03 03:03:54;;;;;;;51.33;34.17;;;;;;;1.41;96.31;99641.04;1787591;79;25146;-66
2021/01/03 03:06:20;;;;;;;50.07;31.87;;;;;;;1.46;96.38;99641.70;1787555;79;25342;-67
2021/01/03 03:08:47;;;;;;;50.67;32.70;;;;;;;1.52;96.36;99631.98;1787388;80;25612;-67
2021/01/03 03:11:14;;;;;;;49.47;31.90;;;;;;;1.52;96.26;99633.28;1787361;79;25273;-67
2021/01/03 03:13:40;;;;;;;43.90;28.23;;;;;;;1.52;96.27;99636.70;1787541;80;25676;-68
2021/01/03 03:16:07;;;;;;;48.27;31.53;;;;;;;1.55;96.38;99634.45;1787551;79;25197;-68
2021/01/03 03:18:34;;;;;;;49.50;33.97;;;;;;;1.54;96.23;99632.76;1787557;80;25210;-67
2021/01/03 03:21:01;;;;;;;44.63;30.07;;;;;;;1.57;96.28;99639.95;1787333;79;25297;-68
2021/01/03 03:23:28;;;;;;;41.53;28.33;;;;;;;1.60;96.23;99643.73;1795194;78;25372;-67
2021/01/03 03:25:55;;;;;;;44.07;29.73;;;;;;;1.60;96.19;99648.91;1769361;79;25253;-67
2021/01/03 03:28:22;;;;;;;42.90;28.90;;;;;;;1.61;96.15;99654.93;1796450;79;25754;-67
2021/01/03 03:30:49;;;;;;;48.07;31.90;;;;;;;1.58;96.29;99650.73;1769694;78;25252;-67
2021/01/03 03:33:15;;;;;;;47.30;31.33;;;;;;;1.62;96.25;99654.03;1796373;78;25332;-67
2021/01/03 03:35:43;;;;;;;42.03;27.63;;;;;;;1.61;96.18;99651.04;1795849;78;25255;-67
2021/01/03 03:38:10;;;;;;;47.50;31.63;;;;;;;1.61;96.16;99643.27;1744490;78;25303;-67
2021/01/03 03:40:39;;;;;;;46.20;33.03;;;;;;;1.59;96.08;99643.78;1795865;79;25253;-67
2021/01/03 03:43:08;;;;;;;44.73;29.20;;;;;;;1.62;96.18;99647.55;1795786;79;25620;-67
2021/01/03 03:45:35;;;;;;;46.13;31.60;;;;;;;1.64;96.13;99645.30;1795802;78;25201;-68
2021/01/03 03:48:03;;;;;;;44.17;30.33;;;;;;;1.63;96.06;99650.55;1769246;79;25237;-68
2021/01/03 03:50:30;;;;;;;46.07;30.90;;;;;;;1.67;96.16;99649.51;1795806;78;25324;-67
2021/01/03 03:52:56;;;;;;;39.07;26.60;;;;;;;1.69;96.07;99639.91;1795859;79;25661;-67
2021/01/03 03:55:23;;;;;;;42.50;27.90;;;;;;;1.69;96.03;99641.20;1795956;78;25285;-68
2021/01/03 03:57:50;;;;;;;46.43;31.67;;;;;;;1.66;95.94;99627.93;1795916;79;25313;-68
2021/01/03 04:00:20;;;;;;;52.50;34.03;;;;;;;1.64;95.93;99639.25;1795864;78;25265;-67
2021/01/03 04:02:47;;;;;;;49.90;32.00;;;;;;;1.66;96.03;99640.06;1795741;78;25621;-67
2021/01/03 04:05:19;;;;;;;45.43;32.23;;;;;;;1.67;96.01;99649.51;1795783;78;25280;-67
2021/01/03 04:07:45;;;;;;;44.90;30.23;;;;;;;1.68;95.90;99630.46;1795352;78;25195;-67
2021/01/03 04:10:13;;;;;;;45.93;30.57;;;;;;;1.68;95.96;99642.13;1795783;79;25218;-67
2021/01/03 04:12:40;;;;;;;46.10;31.93;;;;;;;1.71;95.93;99645.90;1795710;79;25779;-67
2021/01/03 04:15:12;;;;;;;47.53;32.70;;;;;;;1.75;95.95;99637.08;1795876;78;25265;-67
2021/01/03 04:17:39;;;;;;;48.47;31.33;;;;;;;1.79;95.89;99636.06;1795815;79;25214;-67
2021/01/03 04:20:08;;;;;;;41.43;28.30;;;;;;;1.82;95.85;99626.00;1795693;79;25122;-68
2021/01/03 04:22:34;;;;;;;44.97;31.50;;;;;;;1.82;95.75;99627.29;1795765;78;25169;-67
2021/01/03 04:25:02;;;;;;;43.63;29.77;;;;;;;1.77;95.64;99627.94;1795772;79;25258;-67
2021/01/03 04:27:29;;;;;;;45.87;31.50;;;;;;;1.75;95.68;99618.92;1795919;78;25265;-67
2021/01/03 04:29:55;;;;;;;46.03;29.97;;;;;;;1.71;95.68;99613.48;1795779;79;25317;-67
2021/01/03 04:32:22;;;;;;;46.27;31.47;;;;;;;1.67;95.74;99608.85;1795810;78;25273;-67
2021/01/03 04:34:49;;;;;;;46.33;31.23;;;;;;;1.66;95.73;99602.47;1795749;78;25534;-68
2021/01/03 04:37:18;;;;;;;46.40;31.90;;;;;;;1.64;95.75;99602.53;1795813;79;25194;-68
2021/01/03 04:39:46;;;;;;;47.00;32.23;;;;;;;1.63;95.77;99609.91;1769001;79;25080;-69
2021/01/03 04:42:16;;;;;;;45.17;31.87;;;;;;;1.63;95.92;99601.29;1795756;78;25133;-68
2021/01/03 04:44:51;;;;;;;46.60;32.33;;;;;;;1.62;95.82;99600.89;1795846;78;25273;-68
2021/01/03 04:47:31;;;;;;;50.10;33.53;;;;;;;1.62;95.88;99600.42;1795731;78;25214;-68
2021/01/03 04:50:06;;;;;;;47.30;32.47;;;;;;;1.60;95.88;99596.23;1795143;78;25396;-68
2021/01/03 04:52:44;;;;;;;45.97;30.60;;;;;;;1.57;95.92;99604.95;1795720;78;25866;-68
2021/01/03 04:55:25;;;;;;;47.70;31.97;;;;;;;1.57;95.97;99598.48;1790784;78;25703;-67
2021/01/03 04:58:19;;;;;;;46.03;29.73;;;;;;;1.55;96.00;99602.05;1795710;79;25719;-67
2021/01/03 05:01:09;;;;;;;44.67;30.33;;;;;;;1.55;96.02;99598.16;1793298;78;25609;-67
2021/01/03 05:04:30;;;;;;;44.53;30.07;;;;;;;1.50;96.16;99615.66;1795869;78;25203;-67
2021/01/03 05:06:56;;;;;;;43.73;29.23;;;;;;;1.51;96.13;99604.36;1795874;78;25289;-66
2021/01/03 05:09:23;;;;;;;36.33;25.43;;;;;;;1.52;96.33;99604.30;1744045;79;25324;-67
2021/01/03 05:12:30;;;;;;;43.00;28.37;;;;;;;1.51;96.37;99601.77;1795677;78;25747;-67
2021/01/03 05:15:14;;;;;;;45.70;29.77;;;;;;;1.48;96.41;99589.80;1760497;79;25462;-67
2021/01/03 05:17:40;;;;;;;40.67;27.57;;;;;;;1.45;96.57;99594.64;1795823;78;25305;-67
2021/01/03 05:20:08;;;;;;;40.23;26.83;;;;;;;1.45;96.64;99592.05;1795743;78;25351;-67
2021/01/03 05:22:37;;;;;;;46.73;32.33;;;;;;;1.44;96.79;99588.22;1795515;79;25898;-68
2021/01/03 05:25:07;;;;;;;40.83;27.63;;;;;;;1.43;96.69;99581.37;1795662;78;25661;-67
2021/01/03 05:27:34;;;;;;;45.53;30.27;;;;;;;1.46;96.70;99580.78;1769164;78;25130;-68
2021/01/03 05:30:23;;;;;;;46.30;31.70;;;;;;;1.43;96.68;99582.20;1795549;78;25696;-68
2021/01/03 05:32:50;;;;;;;44.40;29.43;;;;;;;1.47;96.77;99580.32;1795428;79;25296;-68
2021/01/03 05:35:24;;;;;;;44.70;29.80;;;;;;;1.47;96.84;99572.55;1795872;79;25185;-68
2021/01/03 05:37:52;;;;;;;45.17;30.17;;;;;;;1.44;96.96;99567.05;1795871;79;25694;-68
2021/01/03 05:40:33;;;;;;;41.47;27.53;;;;;;;1.43;96.83;99564.06;1795701;78;25198;-67
2021/01/03 05:43:17;;;;;;;43.03;29.47;;;;;;;1.43;96.96;99560.63;1795787;79;25274;-67
2021/01/03 05:46:17;;;;;;;42.30;28.93;;;;;;;1.42;97.07;99571.44;1795737;79;25364;-67
2021/01/03 05:49:01;;;;;;;42.00;30.03;;;;;;;1.43;97.03;99564.52;1795840;78;25266;-67
2021/01/03 05:51:46;;;;;;;43.40;27.70;;;;;;;1.41;97.04;99573.66;1793420;78;25781;-67
2021/01/03 05:54:20;;;;;;;37.83;26.97;;;;;;;1.42;96.97;99566.71;1795708;79;25283;-67
2021/01/03 05:56:46;;;;;;;43.07;29.43;;;;;;;1.41;97.22;99576.24;1795801;79;25261;-67
2021/01/03 05:59:28;;;;;;;46.90;31.20;;;;;;;1.43;97.05;99566.66;1795696;79;25197;-67
2021/01/03 06:02:14;;;;;;;46.70;30.30;;;;;;;1.44;97.10;99568.34;1794930;79;25597;-67
2021/01/03 06:04:41;;;;;;;43.00;29.30;;;;;;;1.48;97.08;99568.59;1795429;78;25256;-67
2021/01/03 06:07:24;;;;;;;46.17;31.73;;;;;;;1.51;97.01;99566.78;1795590;79;25590;-67
2021/01/03 06:09:51;;;;;;;47.73;31.20;;;;;;;1.54;97.00;99567.95;1795753;78;25139;-67
2021/01/03 06:12:22;;;;;;;43.90;31.83;;;;;;;1.56;96.99;99563.54;1795740;78;25261;-67
2021/01/03 06:14:52;;;;;;;41.27;29.23;;;;;;;1.55;96.93;99567.89;1795727;79;25281;-67
2021/01/03 06:17:34;;;;;;;34.93;24.53;;;;;;;1.59;97.11;99577.25;1795812;79;25277;-67
2021/01/03 06:20:19;;;;;;;39.03;25.77;;;;;;;1.63;97.01;99564.99;1795662;78;25150;-68
2021/01/03 06:22:51;;;;;;;40.50;27.63;;;;;;;1.62;96.91;99574.96;1795024;79;25257;-67
2021/01/03 06:25:44;;;;;;;43.20;28.83;;;;;;;1.62;96.99;99565.89;1786774;79;25763;-67
2021/01/03 06:28:18;;;;;;;40.10;26.73;;;;;;;1.61;96.91;99585.80;1786869;79;25281;-67
2021/01/03 06:31:08;;;;;;;42.77;26.43;;;;;;;1.60;96.96;99578.08;1786847;79;25249;-67
2021/01/03 06:34:14;;;;;;;40.30;27.33;;;;;;;1.56;96.87;99561.81;1786800;80;25203;-68
2021/01/03 06:37:01;;;;;;;43.97;30.00;;;;;;;1.52;96.93;99568.02;1786849;79;25218;-68
2021/01/03 06:39:47;;;;;;;43.77;29.87;;;;;;;1.47;96.92;99572.11;1786849;80;25052;-68
2021/01/03 06:42:45;;;;;;;39.77;27.17;;;;;;;1.43;97.03;99579.61;1786743;79;25209;-68
2021/01/03 06:45:59;;;;;;;40.13;28.00;;;;;;;1.44;97.03;99596.86;1786765;79;25637;-68
2021/01/03 06:48:57;;;;;;;45.77;31.37;;;;;;;1.45;96.99;99586.03;1786841;79;25229;-67
2021/01/03 06:52:16;;;;;;;45.27;29.90;;;;;;;1.46;97.06;99610.59;1786710;79;25296;-69
2021/01/03 06:54:52;;;;;;;47.80;31.37;;;;;;;1.46;96.97;99596.34;1786711;80;25065;-69
2021/01/03 06:57:33;;;;;;;48.20;31.23;;;;;;;1.50;96.97;99584.09;1786893;79;25072;-67
2021/01/03 07:00:25;;;;;;;38.90;26.20;;;;;;;1.51;97.03;99579.31;1688340;82;25300;-67
2021/01/03 07:03:16;;;;;;;41.93;28.53;;;;;;;1.56;97.00;99580.39;1786706;79;25324;-68
2021/01/03 07:05:57;;;;;;;43.77;30.67;;;;;;;1.60;96.96;99601.41;1786850;79;25336;-68
2021/01/03 07:08:24;;;;;;;40.63;27.83;;;;;;;1.58;97.03;99609.71;1786881;79;25300;-68
2021/01/03 07:10:50;;;;;;;42.27;29.03;;;;;;;1.60;96.92;99613.91;1731819;80;25281;-68
2021/01/03 07:13:34;;;;;;;37.50;25.23;;;;;;;1.63;96.88;99617.68;1787001;80;25479;-68
2021/01/03 07:16:01;;;;;;;42.00;26.63;;;;;;;1.64;96.89;99600.36;1786892;80;25388;-68
2021/01/03 07:18:49;;;;;;;35.90;23.57;;;;;;;1.64;96.87;99629.75;1756684;80;25318;-68
2021/01/03 07:21:41;;;;;;;39.57;26.87;;;;;;;1.66;96.94;99617.56;1756524;80;25174;-68
2021/01/03 07:24:28;;;;;;;44.20;29.57;;;;;;;1.67;96.82;99615.80;1786697;79;25285;-68
2021/01/03 07:27:38;;;;;;;41.60;29.27;;;;;;;1.75;96.88;99610.31;1818309;78;26736;-67
2021/01/03 07:30:10;;;;;;;38.97;27.03;;;;;;;1.74;96.87;99608.61;1765341;80;25352;-69
2021/01/03 07:32:42;;;;;;;42.47;26.37;;;;;;;1.76;96.76;99595.13;1789581;79;25292;-67
2021/01/03 07:35:27;;;;;;;39.37;27.70;;;;;;;1.77;96.70;99600.25;1789431;79;25233;-67
2021/01/03 07:38:28;;;;;;;43.60;28.77;;;;;;;1.80;96.71;99592.34;1789546;79;25269;-67
2021/01/03 07:41:06;;;;;;;41.37;27.37;;;;;;;1.79;96.61;99588.52;1789461;80;25332;-68
2021/01/03 07:43:56;;;;;;;38.83;26.50;;;;;;;1.78;96.56;99582.95;1789586;79;25304;-67
2021/01/03 07:46:44;;;;;;;38.20;25.53;;;;;;;1.78;96.55;99588.98;1789471;79;25220;-67
2021/01/03 07:49:31;;;;;;;36.83;24.23;;;;;;;1.79;96.66;99601.05;1789394;79;25684;-67
2021/01/03 07:52:01;;;;;;;42.87;28.70;;;;;;;1.83;96.60;99605.65;1744795;80;25743;-68
2021/01/03 07:54:28;;;;;;;44.13;29.50;;;;;;;1.81;96.55;99600.52;1784267;79;25373;-68
2021/01/03 07:56:55;;;;;;;39.43;25.13;;;;;;;1.81;96.48;99599.66;1784232;79;25329;-68
2021/01/03 07:59:22;;;;;;;39.07;26.63;;;;;;;1.84;96.57;99604.29;1784210;79;25233;-68
2021/01/03 08:01:52;;;;;;;40.23;28.90;;;;;;;1.82;96.54;99604.78;1784034;80;25289;-68
2021/01/03 08:04:23;;;;;;;35.67;24.57;;;;;;;1.82;96.49;99613.86;1784221;79;25226;-68
2021/01/03 08:06:50;;;;;;;41.43;29.20;;;;;;;1.85;96.58;99611.61;1784213;80;25232;-68
2021/01/03 08:09:25;;;;;;;37.80;26.87;;;;;;;1.83;96.50;99608.24;1784135;80;25332;-68
2021/01/03 08:11:57;;;;;;;36.67;25.30;;;;;;;1.82;96.49;99609.14;1784118;80;25723;-69
2021/01/03 08:14:27;;;;;;;39.63;27.57;;;;;;;1.84;96.52;99610.77;1783242;80;25180;-69
2021/01/03 08:17:00;;;;;;;38.03;25.07;;;;;;;1.83;96.55;99603.89;1784116;80;25648;-68
2021/01/03 08:19:27;;;;;;;36.20;24.67;;;;;;;1.85;96.53;99612.44;1784026;79;25688;-69
2021/01/03 08:21:59;;;;;;;39.00;26.80;;;;;;;1.88;96.48;99597.22;1784167;80;25321;-68
2021/01/03 08:24:28;;;;;;;36.67;26.07;;;;;;;1.89;96.43;99591.56;1784173;79;25308;-68
2021/01/03 08:26:58;;;;;;;37.37;27.40;;;;;;;1.90;96.47;99591.97;1784481;80;25079;-69
2021/01/03 08:29:39;;;;;;;38.40;27.73;;;;;;;1.93;96.46;99594.41;1784682;80;25333;-69
2021/01/03 08:32:17;;;;;;;32.30;22.27;;;;;;;1.94;96.46;99598.70;1783934;80;25320;-69
2021/01/03 08:34:44;;;;;;;31.60;22.63;;;;;;;1.95;96.55;99588.72;1736430;80;25736;-69
2021/01/03 08:37:23;;;;;;;33.40;23.77;;;;;;;1.98;96.42;99582.95;1784622;80;25222;-67
2021/01/03 08:39:51;;;;;;;33.20;22.07;;;;;;;1.98;96.46;99588.14;1784167;80;25197;-68
2021/01/03 08:42:23;;;;;;;33.17;23.73;;;;;;;2.03;96.41;99584.05;1784013;80;25221;-68
2021/01/03 08:44:56;;;;;;;34.27;23.80;;;;;;;2.04;96.40;99585.72;1784238;80;25059;-68
2021/01/03 08:47:32;;;;;;;31.90;22.77;;;;;;;2.07;96.38;99587.35;1784257;80;25178;-68
2021/01/03 08:50:22;;;;;;;28.20;20.60;;;;;;;2.11;96.43;99590.19;1784183;80;25273;-67
2021/01/03 08:53:01;;;;;;;34.83;23.93;;;;;;;2.09;96.40;99586.83;1777233;80;25229;-68
2021/01/03 08:55:34;;;;;;;30.93;22.30;;;;;;;2.10;96.37;99587.22;1784122;80;25282;-68
2021/01/03 08:58:04;;;;;;;31.13;21.47;;;;;;;2.13;96.38;99587.06;1784203;80;25359;-68
2021/01/03 09:00:34;;;;;;;35.80;23.90;;;;;;;2.11;96.31;99572.89;1784196;80;25613;-68
2021/01/03 09:03:02;;;;;;;34.90;24.33;;;;;;;2.05;96.33;99560.17;1784121;80;25356;-69
2021/01/03 09:05:35;;;;;;;33.30;23.63;;;;;;;2.04;96.43;99550.27;1784087;80;25281;-68
2021/01/03 09:08:04;;;;;;;35.07;24.40;;;;;;;2.05;96.36;99557.58;1784167;80;25636;-69
2021/01/03 09:10:38;;;;;;;32.40;22.83;;;;;;;2.00;96.37;99558.23;1784095;80;25640;-68
2021/01/03 09:13:23;;;;;;;30.63;22.07;;;;;;;1.97;96.60;99577.36;1784066;80;25389;-68
2021/01/03 09:16:28;;;;;;;36.80;25.47;;;;;;;1.95;96.74;99586.12;1783975;80;25131;-68
2021/01/03 09:19:30;;;;;;;35.50;24.17;;;;;;;1.94;96.75;99585.27;1784116;80;25218;-68
2021/01/03 09:22:00;;;;;;;31.00;20.67;;;;;;;1.94;96.71;99584.43;1783968;80;25707;-68
2021/01/03 09:24:32;;;;;;;31.37;22.30;;;;;;;1.98;96.90;99588.59;1784146;80;25288;-68
2021/01/03 09:27:00;;;;;;;31.70;22.30;;;;;;;2.02;96.79;99597.92;1783503;79;25274;-67
2021/01/03 09:29:35;;;;;;;32.00;22.70;;;;;;;2.04;96.69;99599.98;1783676;79;25265;-67
2021/01/03 09:32:13;;;;;;;34.37;24.97;;;;;;;2.04;96.79;99598.69;1783113;79;25667;-68
2021/01/03 09:35:03;;;;;;;39.93;27.50;;;;;;;2.07;96.90;99619.32;1783546;80;25333;-69
2021/01/03 09:37:36;;;;;;;45.87;29.67;;;;;;;2.12;96.87;99599.20;1783248;79;25688;-68
2021/01/03 09:40:37;;;;;;;45.80;30.50;;;;;;;2.15;97.03;99595.19;1783538;80;25308;-68
2021/01/03 09:43:34;;;;;;;35.70;25.03;;;;;;;2.16;96.95;99591.70;1783646;79;25221;-68
2021/01/03 09:46:21;;;;;;;36.00;25.20;;;;;;;2.19;97.05;99605.80;1783392;79;25214;-69
2021/01/03 09:48:47;;;;;;;40.77;29.17;;;;;;;2.26;97.07;99596.47;1783652;80;25649;-68
2021/01/03 09:51:37;;;;;;;39.47;27.60;;;;;;;2.33;97.08;99600.03;1783548;80;25301;-69
2021/01/03 09:54:18;;;;;;;37.07;25.63;;;;;;;2.44;97.15;99589.16;1757878;79;25273;-69
2021/01/03 09:59:28;;;;;;;38.53;27.00;;;;;;;2.53;96.70;99591.36;1847991;76;26940;-68
2021/01/03 10:01:54;;;;;;;31.83;23.40;;;;;;;2.47;96.62;99582.54;1819773;77;25199;-68
2021/01/03 10:04:26;;;;;;;33.83;24.17;;;;;;;2.43;96.58;99579.71;1762744;78;25725;-68
2021/01/03 10:07:25;;;;;;;36.87;25.13;;;;;;;2.45;96.64;99579.17;1819843;77;25192;-69
2021/01/03 10:10:06;;;;;;;40.30;25.70;;;;;;;2.49;96.55;99574.22;1819742;77;25602;-68
2021/01/03 10:12:37;;;;;;;31.67;22.83;;;;;;;2.54;96.63;99581.34;1819846;77;25251;-68
2021/01/03 10:15:18;;;;;;;35.33;25.53;;;;;;;2.63;96.67;99577.52;1819914;78;25195;-68
2021/01/03 10:18:08;;;;;;;34.50;24.37;;;;;;;2.65;96.46;99578.27;1817863;78;25322;-67
2021/01/03 10:20:49;;;;;;;34.33;23.80;;;;;;;2.65;96.48;99574.37;1818487;77;25295;-68
2021/01/03 10:23:40;;;;;;;34.60;24.80;;;;;;;2.63;96.35;99574.91;1819682;77;25340;-67
2021/01/03 10:26:31;;;;;;;35.77;22.90;;;;;;;2.54;96.14;99570.12;1819525;77;25613;-69
2021/01/03 10:28:58;;;;;;;36.23;25.13;;;;;;;2.47;96.26;99581.24;1819806;77;25227;-68
2021/01/03 10:31:26;;;;;;;40.77;27.20;;;;;;;2.41;96.51;99587.99;1819820;78;25223;-69
2021/01/03 10:33:53;;;;;;;43.77;29.37;;;;;;;2.40;96.52;99606.63;1819707;78;25196;-69
2021/01/03 10:36:21;;;;;;;44.97;29.43;;;;;;;2.41;97.08;99592.75;1788237;78;25294;-68
2021/01/03 10:38:48;;;;;;;44.00;30.10;;;;;;;2.44;97.05;99600.84;1788497;78;25275;-68
2021/01/03 10:41:16;;;;;;;41.30;27.40;;;;;;;2.45;96.82;99592.16;1819853;77;25250;-67
2021/01/03 10:43:46;;;;;;;47.00;31.03;;;;;;;2.46;96.92;99591.23;1819831;78;25595;-67
2021/01/03 10:46:18;;;;;;;42.47;28.83;;;;;;;2.49;96.91;99592.39;1819476;77;25200;-68
2021/01/03 10:48:45;;;;;;;44.43;31.17;;;;;;;2.53;96.87;99593.09;1789645;78;25258;-67
2021/01/03 10:51:12;;;;;;;47.30;32.80;;;;;;;2.54;96.93;99589.13;1799450;78;25589;-68
2021/01/03 10:53:38;;;;;;;44.10;29.70;;;;;;;2.49;96.70;99579.88;1787567;79;25344;-68
2021/01/03 10:56:07;;;;;;;45.27;29.87;;;;;;;2.47;96.58;99577.81;1787449;80;25716;-68
2021/01/03 10:58:34;;;;;;;47.50;32.63;;;;;;;2.45;96.60;99567.93;1787363;79;25701;-68
2021/01/03 11:01:01;;;;;;;40.50;28.30;;;;;;;2.39;96.51;99558.20;1757046;80;25067;-68
2021/01/03 11:03:28;;;;;;;43.63;29.93;;;;;;;2.38;96.51;99549.19;1787541;79;25100;-67
2021/01/03 11:05:56;;;;;;;39.90;29.50;;;;;;;2.37;96.47;99548.83;1787343;80;25277;-67
2021/01/03 11:08:25;;;;;;;37.77;26.43;;;;;;;2.40;96.51;99549.98;1787565;79;25170;-69
2021/01/03 11:10:52;;;;;;;43.17;28.37;;;;;;;2.46;96.56;99539.30;1786802;79;25329;-68
2021/01/03 11:13:18;;;;;;;36.77;26.53;;;;;;;2.51;96.36;99536.51;1786954;79;25209;-68
2021/01/03 11:15:45;;;;;;;38.57;27.17;;;;;;;2.58;96.35;99527.08;1786848;80;25680;-68
2021/01/03 11:18:13;;;;;;;39.13;28.43;;;;;;;2.63;96.43;99525.58;1756789;80;25234;-67
2021/01/03 11:20:40;;;;;;;37.83;27.47;;;;;;;2.74;96.36;99531.09;1756506;80;25289;-67
2021/01/03 11:23:07;;;;;;;36.93;27.20;;;;;;;2.83;96.43;99537.59;1786936;80;25258;-68
2021/01/03 11:25:34;;;;;;;41.83;29.23;;;;;;;2.91;96.04;99526.86;1786890;79;25625;-67
2021/01/03 11:28:01;;;;;;;38.67;27.03;;;;;;;2.95;95.91;99531.01;1786955;79;25199;-68
2021/01/03 11:30:28;;;;;;;39.77;28.20;;;;;;;2.98;95.77;99534.73;1786965;80;25245;-69
2021/01/03 11:32:55;;;;;;;42.47;28.87;;;;;;;3.01;95.78;99535.06;1786912;79;25308;-69
2021/01/03 11:35:22;;;;;;;38.30;27.43;;;;;;;3.09;95.73;99525.14;1786874;79;25698;-68
2021/01/03 11:37:49;;;;;;;40.20;28.17;;;;;;;3.09;95.61;99515.58;1786916;80;25293;-68
2021/01/03 11:40:16;;;;;;;39.33;27.00;;;;;;;3.03;95.05;99509.84;1786956;80;25398;-68
2021/01/03 11:42:43;;;;;;;44.03;29.17;;;;;;;2.95;94.41;99513.66;1786930;79;25245;-68
2021/01/03 11:45:14;;;;;;;39.90;28.03;;;;;;;2.84;94.37;99509.89;1786882;80;25331;-68
2021/01/03 11:47:41;;;;;;;38.13;25.67;;;;;;;2.81;94.36;99511.33;1786880;79;25265;-67
2021/01/03 11:50:17;;;;;;;41.23;29.23;;;;;;;2.76;94.53;99514.97;1786851;78;25268;-67
2021/01/03 11:52:44;;;;;;;41.07;27.33;;;;;;;2.68;94.53;99506.72;1786845;79;25317;-67
2021/01/03 11:55:13;;;;;;;37.63;26.60;;;;;;;2.65;94.58;99499.50;1786808;79;25254;-68
2021/01/03 11:57:42;;;;;;;43.63;29.57;;;;;;;2.54;94.53;99493.06;1756466;80;25285;-68